sensor_id;sensor_type;location;lat;lon;timestamp;temperature;humidity
40253;DHT22;25972;51.854;4.534;2023-03-16T00:00:44;5.80;99.90
40253;DHT22;25972;51.854;4.534;2023-03-16T00:03:10;5.80;99.90
40253;DHT22;25972;51.854;4.534;2023-03-16T00:05:36;5.80;99.90
40253;DHT22;25972;51.854;4.534;2023-03-16T00:08:03;5.80;99.90
40253;DHT22;25972;51.854;4.534;2023-03-16T00:10:29;5.80;99.90
40253;DHT22;25972;51.854;4.534;2023-03-16T00:12:56;5.80;99.90
40253;DHT22;25972;51.854;4.534;2023-03-16T00:15:21;5.80;99.90
40253;DHT22;25972;51.854;4.534;2023-03-16T00:17:47;5.80;99.90
40253;DHT22;25972;51.854;4.534;2023-03-16T00:20:17;5.80;99.90
40253;DHT22;25972;51.854;4.534;2023-03-16T00:22:43;5.80;99.90
40253;DHT22;25972;51.854;4.534;2023-03-16T00:25:11;5.80;99.90
40253;DHT22;25972;51.854;4.534;2023-03-16T00:27:39;5.80;99.90
40253;DHT22;25972;51.854;4.534;2023-03-16T00:30:06;5.90;99.90
40253;DHT22;25972;51.854;4.534;2023-03-16T00:32:35;5.90;99.90
40253;DHT22;25972;51.854;4.534;2023-03-16T00:35:02;5.90;99.90
40253;DHT22;25972;51.854;4.534;2023-03-16T00:37:30;5.90;99.90
40253;DHT22;25972;51.854;4.534;2023-03-16T00:39:59;5.90;99.90
40253;DHT22;25972;51.854;4.534;2023-03-16T00:42:27;5.90;99.90
40253;DHT22;25972;51.854;4.534;2023-03-16T00:44:57;5.90;99.90
40253;DHT22;25972;51.854;4.534;2023-03-16T00:47:25;5.90;99.90
40253;DHT22;25972;51.854;4.534;2023-03-16T00:49:50;5.90;99.90
40253;DHT22;25972;51.854;4.534;2023-03-16T00:52:16;5.90;99.90
40253;DHT22;25972;51.854;4.534;2023-03-16T00:54:43;5.90;99.90
40253;DHT22;25972;51.854;4.534;2023-03-16T00:57:11;5.90;99.90
40253;DHT22;25972;51.854;4.534;2023-03-16T00:59:38;5.90;99.90
40253;DHT22;25972;51.854;4.534;2023-03-16T01:02:08;5.90;99.90
40253;DHT22;25972;51.854;4.534;2023-03-16T01:04:35;6.00;99.90
40253;DHT22;25972;51.854;4.534;2023-03-16T01:07:04;6.00;99.90
40253;DHT22;25972;51.854;4.534;2023-03-16T01:09:31;6.00;99.90
40253;DHT22;25972;51.854;4.534;2023-03-16T01:12:13;6.00;99.90
40253;DHT22;25972;51.854;4.534;2023-03-16T01:14:40;6.10;99.90
40253;DHT22;25972;51.854;4.534;2023-03-16T01:17:07;6.00;99.90
40253;DHT22;25972;51.854;4.534;2023-03-16T01:19:35;6.10;99.90
40253;DHT22;25972;51.854;4.534;2023-03-16T01:22:04;6.10;99.90
40253;DHT22;25972;51.854;4.534;2023-03-16T01:24:31;6.10;99.90
40253;DHT22;25972;51.854;4.534;2023-03-16T01:26:58;6.10;99.90
40253;DHT22;25972;51.854;4.534;2023-03-16T01:29:24;6.10;99.90
40253;DHT22;25972;51.854;4.534;2023-03-16T01:31:52;6.10;99.90
40253;DHT22;25972;51.854;4.534;2023-03-16T01:34:18;6.10;99.90
40253;DHT22;25972;51.854;4.534;2023-03-16T01:36:47;6.10;99.90
40253;DHT22;25972;51.854;4.534;2023-03-16T01:39:14;6.10;99.90
40253;DHT22;25972;51.854;4.534;2023-03-16T01:41:45;6.10;99.90
40253;DHT22;25972;51.854;4.534;2023-03-16T01:44:13;6.10;99.90
40253;DHT22;25972;51.854;4.534;2023-03-16T01:46:39;6.10;99.90
40253;DHT22;25972;51.854;4.534;2023-03-16T01:49:10;6.10;99.90
40253;DHT22;25972;51.854;4.534;2023-03-16T01:51:59;6.20;99.90
40253;DHT22;25972;51.854;4.534;2023-03-16T01:54:51;6.20;99.90
40253;DHT22;25972;51.854;4.534;2023-03-16T01:57:21;6.20;99.90
40253;DHT22;25972;51.854;4.534;2023-03-16T01:59:58;6.20;99.90
40253;DHT22;25972;51.854;4.534;2023-03-16T02:02:41;6.20;99.90
40253;DHT22;25972;51.854;4.534;2023-03-16T02:07:40;6.10;99.90
40253;DHT22;25972;51.854;4.534;2023-03-16T02:10:08;6.10;99.90
40253;DHT22;25972;51.854;4.534;2023-03-16T02:12:35;6.10;99.90
40253;DHT22;25972;51.854;4.534;2023-03-16T02:15:02;6.00;99.90
40253;DHT22;25972;51.854;4.534;2023-03-16T02:17:30;6.00;99.90
40253;DHT22;25972;51.854;4.534;2023-03-16T02:22:47;5.90;99.90
40253;DHT22;25972;51.854;4.534;2023-03-16T02:25:16;6.00;99.90
40253;DHT22;25972;51.854;4.534;2023-03-16T02:30:29;5.90;99.90
40253;DHT22;25972;51.854;4.534;2023-03-16T02:33:00;5.90;99.90
40253;DHT22;25972;51.854;4.534;2023-03-16T02:35:29;5.90;99.90
40253;DHT22;25972;51.854;4.534;2023-03-16T02:37:56;5.90;99.90
40253;DHT22;25972;51.854;4.534;2023-03-16T02:40:32;5.80;99.90
40253;DHT22;25972;51.854;4.534;2023-03-16T02:43:11;5.80;99.90
40253;DHT22;25972;51.854;4.534;2023-03-16T02:45:46;5.80;99.90
40253;DHT22;25972;51.854;4.534;2023-03-16T02:48:22;5.80;99.90
40253;DHT22;25972;51.854;4.534;2023-03-16T02:50:51;5.80;99.90
40253;DHT22;25972;51.854;4.534;2023-03-16T02:53:17;5.80;99.90
40253;DHT22;25972;51.854;4.534;2023-03-16T02:55:44;5.80;99.90
40253;DHT22;25972;51.854;4.534;2023-03-16T02:58:12;5.80;99.90
40253;DHT22;25972;51.854;4.534;2023-03-16T03:00:38;5.80;99.90
40253;DHT22;25972;51.854;4.534;2023-03-16T03:03:05;5.80;99.90
40253;DHT22;25972;51.854;4.534;2023-03-16T03:05:32;5.80;99.90
40253;DHT22;25972;51.854;4.534;2023-03-16T03:07:58;5.80;99.90
40253;DHT22;25972;51.854;4.534;2023-03-16T03:10:25;5.80;99.90
40253;DHT22;25972;51.854;4.534;2023-03-16T03:12:51;5.80;99.90
40253;DHT22;25972;51.854;4.534;2023-03-16T03:15:17;5.80;99.90
40253;DHT22;25972;51.854;4.534;2023-03-16T03:17:53;5.80;99.90
40253;DHT22;25972;51.854;4.534;2023-03-16T03:20:19;5.80;99.90
40253;DHT22;25972;51.854;4.534;2023-03-16T03:22:49;5.80;99.90
40253;DHT22;25972;51.854;4.534;2023-03-16T03:25:17;5.80;99.90
40253;DHT22;25972;51.854;4.534;2023-03-16T03:27:44;5.90;99.90
40253;DHT22;25972;51.854;4.534;2023-03-16T03:30:19;5.90;99.90
40253;DHT22;25972;51.854;4.534;2023-03-16T03:32:47;5.80;99.90
40253;DHT22;25972;51.854;4.534;2023-03-16T03:35:14;5.90;99.90
40253;DHT22;25972;51.854;4.534;2023-03-16T03:37:41;5.90;99.90
40253;DHT22;25972;51.854;4.534;2023-03-16T03:40:10;5.90;99.90
40253;DHT22;25972;51.854;4.534;2023-03-16T03:42:38;5.90;99.90
40253;DHT22;25972;51.854;4.534;2023-03-16T03:45:05;5.90;99.90
40253;DHT22;25972;51.854;4.534;2023-03-16T03:47:32;5.90;99.90
40253;DHT22;25972;51.854;4.534;2023-03-16T03:50:00;6.00;99.90
40253;DHT22;25972;51.854;4.534;2023-03-16T03:52:27;6.00;99.90
40253;DHT22;25972;51.854;4.534;2023-03-16T03:54:53;6.00;99.90
40253;DHT22;25972;51.854;4.534;2023-03-16T03:57:18;6.00;99.90
40253;DHT22;25972;51.854;4.534;2023-03-16T03:59:44;6.00;99.90
40253;DHT22;25972;51.854;4.534;2023-03-16T04:02:43;6.00;99.90
40253;DHT22;25972;51.854;4.534;2023-03-16T04:05:21;6.00;99.90
40253;DHT22;25972;51.854;4.534;2023-03-16T04:07:49;6.00;99.90
40253;DHT22;25972;51.854;4.534;2023-03-16T04:10:19;6.00;99.90
40253;DHT22;25972;51.854;4.534;2023-03-16T04:12:46;6.00;99.90
40253;DHT22;25972;51.854;4.534;2023-03-16T04:15:13;6.00;99.90
40253;DHT22;25972;51.854;4.534;2023-03-16T04:17:51;6.00;99.90
40253;DHT22;25972;51.854;4.534;2023-03-16T04:20:17;6.00;99.90
40253;DHT22;25972;51.854;4.534;2023-03-16T04:22:46;6.10;99.90
40253;DHT22;25972;51.854;4.534;2023-03-16T04:25:14;6.00;99.90
40253;DHT22;25972;51.854;4.534;2023-03-16T04:27:42;6.10;99.90
40253;DHT22;25972;51.854;4.534;2023-03-16T04:30:13;6.00;99.90
40253;DHT22;25972;51.854;4.534;2023-03-16T04:32:43;6.00;99.90
40253;DHT22;25972;51.854;4.534;2023-03-16T04:35:11;6.00;99.90
40253;DHT22;25972;51.854;4.534;2023-03-16T04:37:50;6.00;99.90
40253;DHT22;25972;51.854;4.534;2023-03-16T04:40:17;6.00;99.90
40253;DHT22;25972;51.854;4.534;2023-03-16T04:42:49;6.00;99.90
40253;DHT22;25972;51.854;4.534;2023-03-16T04:45:19;6.00;99.90
40253;DHT22;25972;51.854;4.534;2023-03-16T04:47:46;6.00;99.90
40253;DHT22;25972;51.854;4.534;2023-03-16T04:50:14;5.90;99.90
40253;DHT22;25972;51.854;4.534;2023-03-16T04:52:41;6.00;99.90
40253;DHT22;25972;51.854;4.534;2023-03-16T04:55:08;6.00;99.90
40253;DHT22;25972;51.854;4.534;2023-03-16T04:57:35;5.90;99.90
40253;DHT22;25972;51.854;4.534;2023-03-16T05:00:03;6.00;99.90
40253;DHT22;25972;51.854;4.534;2023-03-16T05:02:40;5.90;99.90
40253;DHT22;25972;51.854;4.534;2023-03-16T05:05:06;5.90;99.90
40253;DHT22;25972;51.854;4.534;2023-03-16T05:07:34;5.90;99.90
40253;DHT22;25972;51.854;4.534;2023-03-16T05:09:59;5.90;99.90
40253;DHT22;25972;51.854;4.534;2023-03-16T05:12:25;5.90;99.90
40253;DHT22;25972;51.854;4.534;2023-03-16T05:14:57;5.90;99.90
40253;DHT22;25972;51.854;4.534;2023-03-16T05:17:34;5.90;99.90
40253;DHT22;25972;51.854;4.534;2023-03-16T05:20:00;5.80;99.90
40253;DHT22;25972;51.854;4.534;2023-03-16T05:22:27;5.80;99.90
40253;DHT22;25972;51.854;4.534;2023-03-16T05:25:11;5.80;99.90
40253;DHT22;25972;51.854;4.534;2023-03-16T05:27:47;5.80;99.90
40253;DHT22;25972;51.854;4.534;2023-03-16T05:30:19;5.80;99.90
40253;DHT22;25972;51.854;4.534;2023-03-16T05:32:49;5.80;99.90
40253;DHT22;25972;51.854;4.534;2023-03-16T05:35:16;5.80;99.90
40253;DHT22;25972;51.854;4.534;2023-03-16T05:37:43;5.80;99.90
40253;DHT22;25972;51.854;4.534;2023-03-16T05:40:14;5.80;99.90
40253;DHT22;25972;51.854;4.534;2023-03-16T05:42:54;5.80;99.90
40253;DHT22;25972;51.854;4.534;2023-03-16T05:45:20;5.80;99.90
40253;DHT22;25972;51.854;4.534;2023-03-16T05:48:06;5.90;99.90
40253;DHT22;25972;51.854;4.534;2023-03-16T05:50:36;5.80;99.90
40253;DHT22;25972;51.854;4.534;2023-03-16T05:53:02;5.80;99.90
40253;DHT22;25972;51.854;4.534;2023-03-16T05:55:29;5.80;99.90
40253;DHT22;25972;51.854;4.534;2023-03-16T05:57:58;5.80;99.90
40253;DHT22;25972;51.854;4.534;2023-03-16T06:00:25;5.80;99.90
40253;DHT22;25972;51.854;4.534;2023-03-16T06:03:03;5.80;99.90
40253;DHT22;25972;51.854;4.534;2023-03-16T06:05:32;5.80;99.90
40253;DHT22;25972;51.854;4.534;2023-03-16T06:07:58;5.70;99.90
40253;DHT22;25972;51.854;4.534;2023-03-16T06:10:25;5.80;99.90
40253;DHT22;25972;51.854;4.534;2023-03-16T06:12:51;5.70;99.90
40253;DHT22;25972;51.854;4.534;2023-03-16T06:15:19;5.70;99.90
40253;DHT22;25972;51.854;4.534;2023-03-16T06:17:49;5.70;99.90
40253;DHT22;25972;51.854;4.534;2023-03-16T06:20:15;5.70;99.90
40253;DHT22;25972;51.854;4.534;2023-03-16T06:22:43;5.70;99.90
40253;DHT22;25972;51.854;4.534;2023-03-16T06:25:11;5.70;99.90
40253;DHT22;25972;51.854;4.534;2023-03-16T06:27:38;5.70;99.90
40253;DHT22;25972;51.854;4.534;2023-03-16T06:30:11;5.70;99.90
40253;DHT22;25972;51.854;4.534;2023-03-16T06:32:38;5.70;99.90
40253;DHT22;25972;51.854;4.534;2023-03-16T06:35:07;5.70;99.90
40253;DHT22;25972;51.854;4.534;2023-03-16T06:37:35;5.70;99.90
40253;DHT22;25972;51.854;4.534;2023-03-16T06:40:10;5.70;99.90
40253;DHT22;25972;51.854;4.534;2023-03-16T06:42:38;5.80;99.90
40253;DHT22;25972;51.854;4.534;2023-03-16T06:45:08;5.80;99.90
40253;DHT22;25972;51.854;4.534;2023-03-16T06:47:34;5.80;99.90
40253;DHT22;25972;51.854;4.534;2023-03-16T06:50:00;5.80;99.90
40253;DHT22;25972;51.854;4.534;2023-03-16T06:52:26;5.80;99.90
40253;DHT22;25972;51.854;4.534;2023-03-16T06:54:52;5.90;99.90
40253;DHT22;25972;51.854;4.534;2023-03-16T06:57:19;5.90;99.90
40253;DHT22;25972;51.854;4.534;2023-03-16T06:59:44;5.90;99.90
40253;DHT22;25972;51.854;4.534;2023-03-16T07:02:11;5.90;99.90
40253;DHT22;25972;51.854;4.534;2023-03-16T07:04:38;5.90;99.90
40253;DHT22;25972;51.854;4.534;2023-03-16T07:07:04;6.00;99.90
40253;DHT22;25972;51.854;4.534;2023-03-16T07:09:31;6.00;99.90
40253;DHT22;25972;51.854;4.534;2023-03-16T07:11:56;6.00;99.90
40253;DHT22;25972;51.854;4.534;2023-03-16T07:14:22;6.10;99.90
40253;DHT22;25972;51.854;4.534;2023-03-16T07:16:51;6.10;99.90
40253;DHT22;25972;51.854;4.534;2023-03-16T07:19:18;6.10;99.90
40253;DHT22;25972;51.854;4.534;2023-03-16T07:21:44;6.20;99.90
40253;DHT22;25972;51.854;4.534;2023-03-16T07:24:14;6.20;99.90
40253;DHT22;25972;51.854;4.534;2023-03-16T07:26:40;6.30;99.90
40253;DHT22;25972;51.854;4.534;2023-03-16T07:29:07;6.30;99.90
40253;DHT22;25972;51.854;4.534;2023-03-16T07:31:34;6.40;99.90
40253;DHT22;25972;51.854;4.534;2023-03-16T07:34:03;6.40;99.90
40253;DHT22;25972;51.854;4.534;2023-03-16T07:36:37;6.50;99.90
40253;DHT22;25972;51.854;4.534;2023-03-16T07:39:04;6.60;99.90
40253;DHT22;25972;51.854;4.534;2023-03-16T07:41:32;6.60;99.90
40253;DHT22;25972;51.854;4.534;2023-03-16T07:44:12;6.70;99.90
40253;DHT22;25972;51.854;4.534;2023-03-16T07:46:38;6.70;99.90
40253;DHT22;25972;51.854;4.534;2023-03-16T07:49:04;6.70;99.90
40253;DHT22;25972;51.854;4.534;2023-03-16T07:51:32;6.70;99.90
40253;DHT22;25972;51.854;4.534;2023-03-16T07:53:58;6.70;99.90
40253;DHT22;25972;51.854;4.534;2023-03-16T07:56:29;6.80;99.90
40253;DHT22;25972;51.854;4.534;2023-03-16T07:58:57;6.80;99.90
40253;DHT22;25972;51.854;4.534;2023-03-16T08:01:24;6.90;99.90
40253;DHT22;25972;51.854;4.534;2023-03-16T08:03:49;7.00;99.90
40253;DHT22;25972;51.854;4.534;2023-03-16T08:06:16;7.10;99.90
40253;DHT22;25972;51.854;4.534;2023-03-16T08:08:42;7.10;99.90
40253;DHT22;25972;51.854;4.534;2023-03-16T08:11:13;7.20;99.90
40253;DHT22;25972;51.854;4.534;2023-03-16T08:13:46;7.20;99.90
40253;DHT22;25972;51.854;4.534;2023-03-16T08:16:15;7.20;99.90
40253;DHT22;25972;51.854;4.534;2023-03-16T08:18:43;7.20;99.90
40253;DHT22;25972;51.854;4.534;2023-03-16T08:21:09;7.20;99.90
40253;DHT22;25972;51.854;4.534;2023-03-16T08:23:35;7.20;99.90
40253;DHT22;25972;51.854;4.534;2023-03-16T08:26:01;7.30;99.90
40253;DHT22;25972;51.854;4.534;2023-03-16T08:28:27;7.30;99.90
40253;DHT22;25972;51.854;4.534;2023-03-16T08:30:55;7.40;99.90
40253;DHT22;25972;51.854;4.534;2023-03-16T08:33:48;7.40;99.90
40253;DHT22;25972;51.854;4.534;2023-03-16T08:36:18;7.50;99.90
40253;DHT22;25972;51.854;4.534;2023-03-16T08:38:48;7.60;99.90
40253;DHT22;25972;51.854;4.534;2023-03-16T08:41:16;7.70;99.90
40253;DHT22;25972;51.854;4.534;2023-03-16T08:43:44;7.90;99.90
40253;DHT22;25972;51.854;4.534;2023-03-16T08:46:11;8.00;99.90
40253;DHT22;25972;51.854;4.534;2023-03-16T08:48:46;8.20;99.90
40253;DHT22;25972;51.854;4.534;2023-03-16T08:51:13;8.30;99.90
40253;DHT22;25972;51.854;4.534;2023-03-16T08:53:39;8.40;99.90
40253;DHT22;25972;51.854;4.534;2023-03-16T08:56:10;8.50;99.90
40253;DHT22;25972;51.854;4.534;2023-03-16T08:58:37;8.60;99.90
40253;DHT22;25972;51.854;4.534;2023-03-16T09:01:05;8.70;99.90
40253;DHT22;25972;51.854;4.534;2023-03-16T09:03:32;8.70;99.90
40253;DHT22;25972;51.854;4.534;2023-03-16T09:06:01;8.70;99.90
40253;DHT22;25972;51.854;4.534;2023-03-16T09:08:27;8.70;99.90
40253;DHT22;25972;51.854;4.534;2023-03-16T09:11:05;8.80;99.90
40253;DHT22;25972;51.854;4.534;2023-03-16T09:13:32;8.80;99.90
40253;DHT22;25972;51.854;4.534;2023-03-16T09:15:58;8.90;99.90
40253;DHT22;25972;51.854;4.534;2023-03-16T09:18:25;9.10;99.90
40253;DHT22;25972;51.854;4.534;2023-03-16T09:21:06;9.30;99.90
40253;DHT22;25972;51.854;4.534;2023-03-16T09:23:33;9.50;99.90
40253;DHT22;25972;51.854;4.534;2023-03-16T09:26:01;9.60;99.90
40253;DHT22;25972;51.854;4.534;2023-03-16T09:28:28;9.80;99.90
40253;DHT22;25972;51.854;4.534;2023-03-16T09:30:56;10.00;99.90
40253;DHT22;25972;51.854;4.534;2023-03-16T09:33:23;10.10;99.90
40253;DHT22;25972;51.854;4.534;2023-03-16T09:35:50;10.30;99.90
40253;DHT22;25972;51.854;4.534;2023-03-16T09:38:18;10.50;99.90
40253;DHT22;25972;51.854;4.534;2023-03-16T09:40:45;10.50;99.90
40253;DHT22;25972;51.854;4.534;2023-03-16T09:46:14;11.00;99.90
40253;DHT22;25972;51.854;4.534;2023-03-16T09:48:42;11.20;99.90
40253;DHT22;25972;51.854;4.534;2023-03-16T09:51:30;11.30;99.90
40253;DHT22;25972;51.854;4.534;2023-03-16T09:54:02;11.50;99.90
40253;DHT22;25972;51.854;4.534;2023-03-16T09:56:30;11.50;99.90
40253;DHT22;25972;51.854;4.534;2023-03-16T09:58:58;11.60;99.90
40253;DHT22;25972;51.854;4.534;2023-03-16T10:04:52;11.50;99.90
40253;DHT22;25972;51.854;4.534;2023-03-16T10:07:37;11.60;99.90
40253;DHT22;25972;51.854;4.534;2023-03-16T10:12:42;11.70;99.90
40253;DHT22;25972;51.854;4.534;2023-03-16T10:15:16;11.60;99.90
40253;DHT22;25972;51.854;4.534;2023-03-16T10:18:01;11.60;99.90
40253;DHT22;25972;51.854;4.534;2023-03-16T10:20:33;11.60;99.90
40253;DHT22;25972;51.854;4.534;2023-03-16T10:23:00;11.50;99.90
40253;DHT22;25972;51.854;4.534;2023-03-16T10:25:46;11.50;99.90
40253;DHT22;25972;51.854;4.534;2023-03-16T10:28:18;11.60;99.90
40253;DHT22;25972;51.854;4.534;2023-03-16T10:30:47;11.60;99.90
40253;DHT22;25972;51.854;4.534;2023-03-16T10:38:30;11.90;99.90
40253;DHT22;25972;51.854;4.534;2023-03-16T10:40:59;12.10;99.90
40253;DHT22;25972;51.854;4.534;2023-03-16T10:43:27;12.10;99.90
40253;DHT22;25972;51.854;4.534;2023-03-16T10:45:59;12.10;99.90
40253;DHT22;25972;51.854;4.534;2023-03-16T10:48:26;12.10;99.90
40253;DHT22;25972;51.854;4.534;2023-03-16T10:50:56;12.00;99.90
40253;DHT22;25972;51.854;4.534;2023-03-16T10:53:24;12.00;99.90
40253;DHT22;25972;51.854;4.534;2023-03-16T10:56:00;11.90;99.90
40253;DHT22;25972;51.854;4.534;2023-03-16T10:58:32;12.00;99.90
40253;DHT22;25972;51.854;4.534;2023-03-16T11:00:59;12.10;99.90
40253;DHT22;25972;51.854;4.534;2023-03-16T11:03:30;12.10;99.90
40253;DHT22;25972;51.854;4.534;2023-03-16T11:06:05;12.10;99.90
40253;DHT22;25972;51.854;4.534;2023-03-16T11:08:38;12.10;99.90
40253;DHT22;25972;51.854;4.534;2023-03-16T11:11:12;12.10;99.90
40253;DHT22;25972;51.854;4.534;2023-03-16T11:13:44;12.20;99.90
40253;DHT22;25972;51.854;4.534;2023-03-16T11:18:44;12.20;99.90
40253;DHT22;25972;51.854;4.534;2023-03-16T11:21:15;12.20;99.90
40253;DHT22;25972;51.854;4.534;2023-03-16T11:23:48;12.30;99.90
40253;DHT22;25972;51.854;4.534;2023-03-16T11:26:26;12.40;99.90
40253;DHT22;25972;51.854;4.534;2023-03-16T11:29:01;12.40;99.90
40253;DHT22;25972;51.854;4.534;2023-03-16T11:31:56;12.40;99.90
40253;DHT22;25972;51.854;4.534;2023-03-16T11:34:30;12.50;99.90
40253;DHT22;25972;51.854;4.534;2023-03-16T11:39:57;12.70;99.90
40253;DHT22;25972;51.854;4.534;2023-03-16T11:42:38;12.80;99.90
40253;DHT22;25972;51.854;4.534;2023-03-16T11:54:23;13.50;99.90
40253;DHT22;25972;51.854;4.534;2023-03-16T12:05:33;14.00;99.90
40253;DHT22;25972;51.854;4.534;2023-03-16T12:15:51;13.90;98.50
40253;DHT22;25972;51.854;4.534;2023-03-16T12:24:21;13.50;97.70
40253;DHT22;25972;51.854;4.534;2023-03-16T12:26:49;13.70;98.30
40253;DHT22;25972;51.854;4.534;2023-03-16T12:32:14;14.00;97.20
40253;DHT22;25972;51.854;4.534;2023-03-16T12:37:55;14.00;96.40
40253;DHT22;25972;51.854;4.534;2023-03-16T12:40:34;13.80;96.50
40253;DHT22;25972;51.854;4.534;2023-03-16T12:43:27;13.70;95.90
40253;DHT22;25972;51.854;4.534;2023-03-16T12:48:57;13.80;96.20
40253;DHT22;25972;51.854;4.534;2023-03-16T12:51:33;13.80;96.50
40253;DHT22;25972;51.854;4.534;2023-03-16T12:53:59;13.80;95.60
40253;DHT22;25972;51.854;4.534;2023-03-16T12:58:59;13.80;96.60
40253;DHT22;25972;51.854;4.534;2023-03-16T13:01:28;14.00;96.70
40253;DHT22;25972;51.854;4.534;2023-03-16T13:04:21;14.20;96.40
40253;DHT22;25972;51.854;4.534;2023-03-16T13:06:50;14.30;95.70
40253;DHT22;25972;51.854;4.534;2023-03-16T13:09:21;14.20;95.30
40253;DHT22;25972;51.854;4.534;2023-03-16T13:11:49;14.10;95.00
40253;DHT22;25972;51.854;4.534;2023-03-16T13:14:29;14.00;95.30
40253;DHT22;25972;51.854;4.534;2023-03-16T13:19:42;14.00;95.50
40253;DHT22;25972;51.854;4.534;2023-03-16T13:22:18;14.00;95.50
40253;DHT22;25972;51.854;4.534;2023-03-16T13:24:51;14.00;95.70
40253;DHT22;25972;51.854;4.534;2023-03-16T13:27:26;14.20;95.60
40253;DHT22;25972;51.854;4.534;2023-03-16T13:29:58;14.20;94.80
40253;DHT22;25972;51.854;4.534;2023-03-16T13:32:26;14.20;94.40
40253;DHT22;25972;51.854;4.534;2023-03-16T13:34:58;14.20;94.50
40253;DHT22;25972;51.854;4.534;2023-03-16T13:37:27;14.30;94.80
40253;DHT22;25972;51.854;4.534;2023-03-16T13:39:58;14.30;95.00
40253;DHT22;25972;51.854;4.534;2023-03-16T13:42:28;14.40;95.20
40253;DHT22;25972;51.854;4.534;2023-03-16T13:44:56;14.40;94.50
40253;DHT22;25972;51.854;4.534;2023-03-16T13:47:24;14.30;94.50
40253;DHT22;25972;51.854;4.534;2023-03-16T13:49:56;14.50;95.00
40253;DHT22;25972;51.854;4.534;2023-03-16T13:52:29;14.40;94.30
40253;DHT22;25972;51.854;4.534;2023-03-16T13:54:57;14.50;94.50
40253;DHT22;25972;51.854;4.534;2023-03-16T13:57:26;14.40;93.20
40253;DHT22;25972;51.854;4.534;2023-03-16T14:00:02;14.50;94.10
40253;DHT22;25972;51.854;4.534;2023-03-16T14:02:34;14.50;93.50
40253;DHT22;25972;51.854;4.534;2023-03-16T14:05:15;14.50;93.60
40253;DHT22;25972;51.854;4.534;2023-03-16T14:07:41;14.60;93.90
40253;DHT22;25972;51.854;4.534;2023-03-16T14:10:12;14.70;94.50
40253;DHT22;25972;51.854;4.534;2023-03-16T14:13:05;14.80;94.70
40253;DHT22;25972;51.854;4.534;2023-03-16T14:15:31;14.90;92.50
40253;DHT22;25972;51.854;4.534;2023-03-16T14:18:15;14.90;91.60
40253;DHT22;25972;51.854;4.534;2023-03-16T14:20:46;14.90;92.00
40253;DHT22;25972;51.854;4.534;2023-03-16T14:23:19;14.90;92.30
40253;DHT22;25972;51.854;4.534;2023-03-16T14:25:47;14.80;91.80
40253;DHT22;25972;51.854;4.534;2023-03-16T14:28:15;14.90;91.60
40253;DHT22;25972;51.854;4.534;2023-03-16T14:31:03;14.90;92.00
40253;DHT22;25972;51.854;4.534;2023-03-16T14:33:32;14.90;92.30
40253;DHT22;25972;51.854;4.534;2023-03-16T14:36:10;14.90;91.80
40253;DHT22;25972;51.854;4.534;2023-03-16T14:38:37;15.00;92.50
40253;DHT22;25972;51.854;4.534;2023-03-16T14:41:14;15.00;92.30
40253;DHT22;25972;51.854;4.534;2023-03-16T14:43:56;15.10;92.50
40253;DHT22;25972;51.854;4.534;2023-03-16T14:46:32;15.00;91.60
40253;DHT22;25972;51.854;4.534;2023-03-16T14:49:02;15.10;91.90
40253;DHT22;25972;51.854;4.534;2023-03-16T14:51:31;15.20;92.90
40253;DHT22;25972;51.854;4.534;2023-03-16T14:53:58;15.40;93.10
40253;DHT22;25972;51.854;4.534;2023-03-16T14:56:32;15.50;93.80
40253;DHT22;25972;51.854;4.534;2023-03-16T14:58:58;15.60;92.30
40253;DHT22;25972;51.854;4.534;2023-03-16T15:01:25;15.40;91.90
40253;DHT22;25972;51.854;4.534;2023-03-16T15:03:51;15.50;93.00
40253;DHT22;25972;51.854;4.534;2023-03-16T15:06:17;15.40;92.10
40253;DHT22;25972;51.854;4.534;2023-03-16T15:08:44;15.40;92.30
40253;DHT22;25972;51.854;4.534;2023-03-16T15:11:11;15.30;92.30
40253;DHT22;25972;51.854;4.534;2023-03-16T15:13:38;15.30;91.00
40253;DHT22;25972;51.854;4.534;2023-03-16T15:16:10;15.30;91.60
40253;DHT22;25972;51.854;4.534;2023-03-16T15:18:36;15.20;91.80
40253;DHT22;25972;51.854;4.534;2023-03-16T15:21:12;15.10;91.50
40253;DHT22;25972;51.854;4.534;2023-03-16T15:23:42;15.10;92.10
40253;DHT22;25972;51.854;4.534;2023-03-16T15:26:13;14.90;91.30
40253;DHT22;25972;51.854;4.534;2023-03-16T15:28:39;14.80;91.60
40253;DHT22;25972;51.854;4.534;2023-03-16T15:31:05;14.80;92.10
40253;DHT22;25972;51.854;4.534;2023-03-16T15:33:32;14.70;92.00
40253;DHT22;25972;51.854;4.534;2023-03-16T15:35:59;14.70;92.70
40253;DHT22;25972;51.854;4.534;2023-03-16T15:38:29;14.50;92.30
40253;DHT22;25972;51.854;4.534;2023-03-16T15:40:55;14.40;92.30
40253;DHT22;25972;51.854;4.534;2023-03-16T15:43:23;14.50;92.70
40253;DHT22;25972;51.854;4.534;2023-03-16T15:45:50;14.40;92.90
40253;DHT22;25972;51.854;4.534;2023-03-16T15:48:19;14.50;93.00
40253;DHT22;25972;51.854;4.534;2023-03-16T15:50:54;14.40;92.80
40253;DHT22;25972;51.854;4.534;2023-03-16T15:55:54;14.40;93.30
40253;DHT22;25972;51.854;4.534;2023-03-16T15:58:25;14.40;93.60
40253;DHT22;25972;51.854;4.534;2023-03-16T16:00:56;14.40;93.60
40253;DHT22;25972;51.854;4.534;2023-03-16T16:03:24;14.40;93.80
40253;DHT22;25972;51.854;4.534;2023-03-16T16:05:51;14.40;93.90
40253;DHT22;25972;51.854;4.534;2023-03-16T16:08:18;14.30;94.00
40253;DHT22;25972;51.854;4.534;2023-03-16T16:10:45;14.30;94.30
40253;DHT22;25972;51.854;4.534;2023-03-16T16:13:19;14.20;93.40
40253;DHT22;25972;51.854;4.534;2023-03-16T16:15:46;14.20;93.80
40253;DHT22;25972;51.854;4.534;2023-03-16T16:18:31;14.10;93.80
40253;DHT22;25972;51.854;4.534;2023-03-16T16:21:00;14.00;93.90
40253;DHT22;25972;51.854;4.534;2023-03-16T16:23:27;13.90;94.50
40253;DHT22;25972;51.854;4.534;2023-03-16T16:25:58;13.80;94.70
40253;DHT22;25972;51.854;4.534;2023-03-16T16:28:28;13.80;95.00
40253;DHT22;25972;51.854;4.534;2023-03-16T16:30:56;13.70;95.00
40253;DHT22;25972;51.854;4.534;2023-03-16T16:33:27;13.60;95.20
40253;DHT22;25972;51.854;4.534;2023-03-16T16:35:56;13.50;95.20
40253;DHT22;25972;51.854;4.534;2023-03-16T16:38:22;13.40;95.40
40253;DHT22;25972;51.854;4.534;2023-03-16T16:40:49;13.30;95.50
40253;DHT22;25972;51.854;4.534;2023-03-16T16:43:43;13.20;95.60
40253;DHT22;25972;51.854;4.534;2023-03-16T16:46:14;13.10;95.50
40253;DHT22;25972;51.854;4.534;2023-03-16T16:48:57;13.00;95.60
40253;DHT22;25972;51.854;4.534;2023-03-16T16:51:26;12.90;95.50
40253;DHT22;25972;51.854;4.534;2023-03-16T16:53:55;12.90;95.90
40253;DHT22;25972;51.854;4.534;2023-03-16T16:56:33;12.80;95.80
40253;DHT22;25972;51.854;4.534;2023-03-16T17:01:43;12.70;96.00
40253;DHT22;25972;51.854;4.534;2023-03-16T17:04:18;12.60;96.20
40253;DHT22;25972;51.854;4.534;2023-03-16T17:06:45;12.50;96.30
40253;DHT22;25972;51.854;4.534;2023-03-16T17:09:11;12.50;96.70
40253;DHT22;25972;51.854;4.534;2023-03-16T17:11:40;12.40;96.60
40253;DHT22;25972;51.854;4.534;2023-03-16T17:14:07;12.30;96.80
40253;DHT22;25972;51.854;4.534;2023-03-16T17:16:34;12.20;96.90